Station Historical Data
Daily Summary for November 23, 2017 Units:  English    Metric   Both
« Previous Day
Next Day »
Daily Weekly Monthly Yearly Custom
  High: Low: Average:
Temperature: 59.7 °F 37.0 °F 46.7 °F
Dew Point: 39.9 °F 28.8 °F 34.8 °F
Humidity: 88% 38% 66%
Wind Speed: 5.8mph 0.0mph 1mph
Wind Gust: 5.8mph - -
Wind- - West
Pressure: 30.14 in 30.03 in -
Precipitation: 0.00 in    
Historical Graphs
 
 
Tabular Data for November 23, 2017
Time Temperature Dew Point Pressure Wind Wind Speed Wind Gust Humidity Rainfall Rate (Hourly) solar Conditions
00:01 40.7 °F 32.7 °F 30.13 in Calm     73% 0.00 in WeatherDisplay:10.37 W/m2 BKN
00:06 40.6 °F 33.0 °F 30.13 in Calm     74% 0.00 in WeatherDisplay:10.37 W/m2 CLR
00:11 40.4 °F 33.1 °F 30.13 in Calm     75% 0.00 in WeatherDisplay:10.37 W/m2 CLR
00:26 39.9 °F 33.3 °F 30.13 in Calm     77% 0.00 in WeatherDisplay:10.37 W/m2 CLR
00:31 39.7 °F 32.8 °F 30.13 in Calm     76% 0.00 in WeatherDisplay:10.37 W/m2 CLR
00:41 39.4 °F 32.8 °F 30.13 in Calm     77% 0.00 in WeatherDisplay:10.37 W/m2 CLR
00:51 39.1 °F 32.8 °F 30.14 in Calm     78% 0.00 in WeatherDisplay:10.37 W/m2 CLR
00:56 38.9 °F 32.6 °F 30.13 in Calm     78% 0.00 in WeatherDisplay:10.37 W/m2 CLR
01:07 38.7 °F 32.4 °F 30.13 in North 1.2 mph   78% 0.00 in WeatherDisplay:10.37 W/m2 CLR
01:12 38.8 °F 32.8 °F 30.13 in North 1.2 mph   79% 0.00 in WeatherDisplay:10.37 W/m2 CLR
01:27 38.8 °F 33.2 °F 30.12 in Calm     80% 0.00 in WeatherDisplay:10.37 W/m2 CLR
01:32 38.7 °F 33.1 °F 30.12 in Calm     80% 0.00 in WeatherDisplay:10.37 W/m2 CLR
01:37 38.6 °F 33.0 °F 30.12 in Calm     80% 0.00 in WeatherDisplay:10.37 W/m2 CLR
01:42 38.8 °F 32.8 °F 30.12 in Calm     79% 0.00 in WeatherDisplay:10.37 W/m2 CLR
01:47 38.9 °F 32.9 °F 30.12 in Calm     79% 0.00 in WeatherDisplay:10.37 W/m2 CLR
01:52 38.8 °F 33.2 °F 30.13 in North 1.2 mph   80% 0.00 in WeatherDisplay:10.37 W/m2 CLR
01:57 38.7 °F 32.7 °F 30.13 in NW 1.2 mph   79% 0.00 in WeatherDisplay:10.37 W/m2 CLR
02:02 38.7 °F 32.7 °F 30.13 in NNW 1.2 mph   79% 0.00 in WeatherDisplay:10.37 W/m2 CLR
02:07 38.8 °F 32.5 °F 30.13 in Calm     78% 0.00 in WeatherDisplay:10.37 W/m2 CLR
02:13 38.9 °F 32.9 °F 30.13 in Calm     79% 0.00 in WeatherDisplay:10.37 W/m2 CLR
02:18 38.6 °F 33.0 °F 30.13 in Calm     80% 0.00 in WeatherDisplay:10.37 W/m2 CLR
02:23 38.4 °F 33.1 °F 30.12 in Calm     81% 0.00 in WeatherDisplay:10.37 W/m2 CLR
02:28 38.1 °F 32.8 °F 30.12 in Calm     81% 0.00 in WeatherDisplay:10.37 W/m2 CLR
02:33 37.9 °F 32.6 °F 30.12 in Calm     81% 0.00 in WeatherDisplay:10.37 W/m2 CLR
02:38 37.8 °F 32.5 °F 30.12 in Calm     81% 0.00 in WeatherDisplay:10.37 W/m2 CLR
02:43 37.7 °F 32.4 °F 30.12 in Calm     81% 0.00 in WeatherDisplay:10.37 W/m2 CLR
02:48 37.6 °F 32.6 °F 30.12 in Calm     82% 0.00 in WeatherDisplay:10.37 W/m2 CLR
02:53 37.5 °F 32.5 °F 30.12 in Calm     82% 0.00 in WeatherDisplay:10.37 W/m2 CLR
03:04 37.4 °F 32.7 °F 30.12 in Calm     83% 0.00 in WeatherDisplay:10.37 W/m2 CLR
03:09 37.3 °F 32.6 °F 30.12 in Calm     83% 0.00 in WeatherDisplay:10.37 W/m2 CLR
03:14 37.5 °F 33.1 °F 30.12 in Calm     84% 0.00 in WeatherDisplay:10.37 W/m2 CLR
03:19 38.1 °F 33.7 °F 30.12 in Calm     84% 0.00 in WeatherDisplay:10.37 W/m2 CLR
03:24 38.2 °F 33.5 °F 30.12 in Calm     83% 0.00 in WeatherDisplay:10.37 W/m2 CLR
03:39 37.6 °F 33.2 °F 30.11 in Calm     84% 0.00 in WeatherDisplay:10.37 W/m2 CLR
03:49 37.4 °F 33.0 °F 30.11 in Calm     84% 0.00 in WeatherDisplay:10.37 W/m2 CLR
03:54 37.3 °F 33.2 °F 30.11 in Calm     85% 0.00 in WeatherDisplay:10.37 W/m2 CLR
03:59 37.2 °F 33.1 °F 30.11 in Calm     85% 0.00 in WeatherDisplay:10.37 W/m2 CLR
04:04 37.1 °F 33.0 °F 30.11 in Calm     85% 0.00 in WeatherDisplay:10.37 W/m2 CLR
04:10 37.0 °F 33.2 °F 30.11 in Calm     86% 0.00 in WeatherDisplay:10.37 W/m2 CLR
04:15 37.3 °F 33.2 °F 30.11 in Calm     85% 0.00 in WeatherDisplay:10.37 W/m2 CLR
04:20 37.9 °F 33.2 °F 30.11 in Calm     83% 0.00 in WeatherDisplay:10.37 W/m2 CLR
04:25 38.1 °F 33.4 °F 30.10 in Calm     83% 0.00 in WeatherDisplay:10.37 W/m2 CLR
04:30 38.2 °F 33.2 °F 30.10 in Calm     82% 0.00 in WeatherDisplay:10.37 W/m2 CLR
04:41 38.6 °F 33.0 °F 30.10 in Calm     80% 0.00 in WeatherDisplay:10.37 W/m2 CLR
04:46 38.9 °F 32.3 °F 30.10 in Calm     77% 0.00 in WeatherDisplay:10.37 W/m2 CLR
04:51 39.7 °F 32.1 °F 30.10 in Calm     74% 0.00 in WeatherDisplay:10.37 W/m2 CLR
04:56 40.1 °F 32.5 °F 30.10 in Calm     74% 0.00 in WeatherDisplay:10.37 W/m2 CLR
04:58 40.1 °F 32.5 °F 30.10 in Calm     74% 0.00 in WeatherDisplay:10.37 W/m2 CLR
05:03 40.3 °F 32.7 °F 30.11 in Calm     74% 0.00 in WeatherDisplay:10.37 W/m2 CLR
05:14 40.6 °F 32.3 °F 30.11 in Calm     72% 0.00 in WeatherDisplay:10.37 W/m2 CLR
05:29 41.1 °F 32.1 °F 30.11 in Calm     70% 0.00 in WeatherDisplay:10.37 W/m2 CLR
05:34 41.4 °F 32.3 °F 30.11 in Calm     70% 0.00 in WeatherDisplay:10.37 W/m2 CLR
05:39 41.5 °F 32.1 °F 30.11 in Calm     69% 0.00 in WeatherDisplay:10.37 W/m2 CLR
05:44 41.3 °F 31.9 °F 30.11 in Calm     69% 0.00 in WeatherDisplay:10.37 W/m2 CLR
05:49 41.3 °F 31.9 °F 30.11 in Calm     69% 0.00 in WeatherDisplay:10.37 W/m2 CLR
06:00 41.3 °F 31.9 °F 30.11 in Calm     69% 0.00 in WeatherDisplay:10.37 W/m2 CLR
06:05 41.1 °F 31.7 °F 30.11 in Calm     69% 0.00 in WeatherDisplay:10.37 W/m2 CLR
06:10 41.0 °F 31.6 °F 30.11 in Calm     69% 0.00 in WeatherDisplay:10.37 W/m2 CLR
06:15 40.9 °F 31.9 °F 30.11 in Calm     70% 0.00 in WeatherDisplay:10.37 W/m2 CLR
06:25 40.7 °F 31.3 °F 30.11 in Calm     69% 0.00 in WeatherDisplay:10.37 W/m2 CLR
06:30 40.7 °F 31.3 °F 30.12 in Calm     69% 0.00 in WeatherDisplay:10.37 W/m2 CLR
06:35 40.8 °F 31.1 °F 30.12 in Calm     68% 0.00 in WeatherDisplay:10.37 W/m2 CLR
06:45 41.0 °F 31.6 °F 30.12 in NNE 1.2 mph   69% 0.00 in WeatherDisplay:10.37 W/m2 CLR
06:50 41.1 °F 31.7 °F 30.12 in WNW 1.2 mph   69% 0.00 in WeatherDisplay:10.37 W/m2 CLR
07:00 41.3 °F 31.5 °F 30.12 in West 1.2 mph   68% 0.00 in WeatherDisplay:10.37 W/m2 CLR
07:05 41.2 °F 31.4 °F 30.12 in West 1.2 mph 1.2 mph 68% 0.00 in WeatherDisplay:10.37 W/m2 CLR
07:10 41.4 °F 30.9 °F 30.11 in West 1.2 mph   66% 0.00 in WeatherDisplay:10.37 W/m2 CLR
07:15 41.7 °F 30.8 °F 30.11 in West 1.2 mph   65% 0.00 in WeatherDisplay:10.37 W/m2 CLR
07:21 41.7 °F 30.8 °F 30.12 in West 1.2 mph   65% 0.00 in WeatherDisplay:10.37 W/m2 CLR
07:26 41.7 °F 31.2 °F 30.12 in West 1.2 mph   66% 0.00 in WeatherDisplay:10.37 W/m2 CLR
07:31 41.6 °F 31.1 °F 30.12 in West 1.2 mph   66% 0.00 in WeatherDisplay:10.37 W/m2 CLR
07:36 41.9 °F 30.6 °F 30.12 in West 2.3 mph 2.3 mph 64% 0.00 in WeatherDisplay:10.37 W/m2 CLR
07:41 42.0 °F 30.7 °F 30.12 in West 2.3 mph 2.3 mph 64% 0.00 in WeatherDisplay:10.37 W/m2 CLR
07:50 42.1 °F 30.8 °F 30.12 in West 1.2 mph   64% 0.00 in WeatherDisplay:10.37 W/m2 CLR
07:56 42.2 °F 30.9 °F 30.12 in West 1.2 mph 1.2 mph 64% 0.00 in WeatherDisplay:10.37 W/m2 CLR
08:01 42.3 °F 31.0 °F 30.12 in West 2.3 mph 2.3 mph 64% 0.00 in WeatherDisplay:10.37 W/m2 CLR
08:06 42.4 °F 30.7 °F 30.12 in West 2.3 mph 2.3 mph 63% 0.00 in WeatherDisplay:10.37 W/m2 CLR
08:11 42.7 °F 31.0 °F 30.12 in West 2.3 mph 2.3 mph 63% 0.00 in WeatherDisplay:10.37 W/m2 CLR
08:16 42.9 °F 30.8 °F 30.13 in West 2.3 mph 2.3 mph 62% 0.00 in WeatherDisplay:10.37 W/m2 CLR
08:26 43.4 °F 31.2 °F 30.13 in West 5.8 mph 5.8 mph 62% 0.00 in WeatherDisplay:10.37 W/m2 CLR
08:31 43.6 °F 31.4 °F 30.13 in West 5.8 mph   62% 0.00 in WeatherDisplay:10.37 W/m2 CLR
08:36 43.9 °F 31.7 °F 30.13 in West 3.5 mph   62% 0.00 in WeatherDisplay:10.37 W/m2 CLR
08:41 44.1 °F 31.5 °F 30.13 in West 2.3 mph   61% 0.00 in WeatherDisplay:10.37 W/m2 CLR
08:46 44.5 °F 31.9 °F 30.13 in WSW 2.3 mph   61% 0.00 in WeatherDisplay:10.37 W/m2 CLR
08:56 45.6 °F 32.1 °F 30.13 in West 2.3 mph   59% 0.00 in WeatherDisplay:10.37 W/m2 CLR
09:01 46.1 °F 31.7 °F 30.13 in WNW 2.3 mph 2.3 mph 57% 0.00 in WeatherDisplay:10.37 W/m2 CLR
09:07 46.4 °F 32.0 °F 30.13 in WNW 2.3 mph   57% 0.00 in WeatherDisplay:10.37 W/m2 CLR
09:12 46.7 °F 32.3 °F 30.14 in West 3.5 mph 3.5 mph 57% 0.00 in WeatherDisplay:10.37 W/m2 CLR
09:17 46.8 °F 32.4 °F 30.13 in West 3.5 mph   57% 0.00 in WeatherDisplay:10.37 W/m2 CLR
09:22 46.8 °F 31.9 °F 30.13 in West 2.3 mph 2.3 mph 56% 0.00 in WeatherDisplay:10.37 W/m2 FEW
09:27 46.9 °F 32.4 °F 30.13 in West 1.2 mph   57% 0.00 in WeatherDisplay:10.37 W/m2 FEW
09:32 47.2 °F 32.3 °F 30.13 in WSW 1.2 mph 1.2 mph 56% 0.00 in WeatherDisplay:10.37 W/m2 SCT
09:42 47.5 °F 32.1 °F 30.14 in West 2.3 mph 2.3 mph 55% 0.00 in WeatherDisplay:10.37 W/m2 SCT
09:57 48.0 °F 32.1 °F 30.14 in West 3.5 mph   54% 0.00 in WeatherDisplay:10.37 W/m2 SCT
10:08 48.4 °F 31.6 °F 30.14 in WNW 3.5 mph 3.5 mph 52% 0.00 in WeatherDisplay:10.37 W/m2 BKN
10:13 48.7 °F 29.9 °F 30.14 in WNW 4.6 mph 4.6 mph 48% 0.00 in WeatherDisplay:10.37 W/m2 BKN
10:18 48.9 °F 30.6 °F 30.14 in West 4.6 mph 4.6 mph 49% 0.00 in WeatherDisplay:10.37 W/m2 BKN
10:28 49.8 °F 29.3 °F 30.14 in West 2.3 mph 2.3 mph 45% 0.00 in WeatherDisplay:10.37 W/m2 BKN
10:33 50.7 °F 30.7 °F 30.14 in West 4.6 mph 4.6 mph 46% 0.00 in WeatherDisplay:10.37 W/m2 BKN
10:38 51.6 °F 30.9 °F 30.14 in WNW 4.6 mph 4.6 mph 45% 0.00 in WeatherDisplay:10.37 W/m2 BKN
10:53 52.5 °F 28.8 °F 30.13 in West 3.5 mph 3.5 mph 40% 0.00 in WeatherDisplay:10.37 W/m2 BKN
10:58 52.5 °F 31.8 °F 30.13 in West 4.6 mph   45% 0.00 in WeatherDisplay:10.37 W/m2 BKN
11:03 53.2 °F 31.3 °F 30.12 in West 4.6 mph 4.6 mph 43% 0.00 in WeatherDisplay:10.37 W/m2 CLR
11:13 53.9 °F 31.3 °F 30.12 in West 2.3 mph 2.3 mph 42% 0.00 in WeatherDisplay:10.37 W/m2 CLR
11:19 53.9 °F 29.5 °F 30.12 in West 2.3 mph 2.3 mph 39% 0.00 in WeatherDisplay:10.37 W/m2 CLR
11:29 53.7 °F 30.5 °F 30.11 in West 4.6 mph 4.6 mph 41% 0.00 in WeatherDisplay:10.37 W/m2 CLR
11:39 54.2 °F 31.6 °F 30.10 in West 3.5 mph 3.5 mph 42% 0.00 in WeatherDisplay:10.37 W/m2 CLR
11:44 54.6 °F 31.9 °F 30.10 in West 2.3 mph 2.3 mph 42% 0.00 in WeatherDisplay:10.37 W/m2 CLR
11:49 55.0 °F 31.7 °F 30.10 in WNW 4.6 mph   41% 0.00 in WeatherDisplay:10.37 W/m2 CLR
11:59 55.3 °F 30.7 °F 30.09 in West 2.3 mph 2.3 mph 39% 0.00 in WeatherDisplay:10.37 W/m2 CLR
12:04 55.5 °F 32.8 °F 30.09 in West 2.3 mph 2.3 mph 42% 0.00 in WeatherDisplay:10.37 W/m2 CLR
12:09 55.7 °F 31.1 °F 30.09 in WNW 2.3 mph 2.3 mph 39% 0.00 in WeatherDisplay:10.37 W/m2 CLR
12:14 56.0 °F 32.0 °F 30.08 in WNW 2.3 mph 2.3 mph 40% 0.00 in WeatherDisplay:10.37 W/m2 CLR
12:30 56.9 °F 32.8 °F 30.08 in SW 2.3 mph 2.3 mph 40% 0.00 in WeatherDisplay:10.37 W/m2 CLR
12:35 57.2 °F 32.4 °F 30.07 in Calm   2.0 mph 39% 0.00 in WeatherDisplay:10.37 W/m2 CLR
12:40 58.0 °F 33.1 °F 30.07 in Calm   1.0 mph 39% 0.00 in WeatherDisplay:10.37 W/m2 CLR
12:50 58.2 °F 33.3 °F 30.07 in WSW 2.3 mph 2.3 mph 39% 0.00 in WeatherDisplay:10.37 W/m2 CLR
12:55 57.8 °F 33.0 °F 30.07 in WNW 2.3 mph 2.3 mph 39% 0.00 in WeatherDisplay:10.37 W/m2 CLR
13:00 57.7 °F 32.2 °F 30.07 in West 2.3 mph 2.3 mph 38% 0.00 in WeatherDisplay:10.37 W/m2 CLR
13:05 58.0 °F 32.5 °F 30.07 in West 3.5 mph 3.5 mph 38% 0.00 in WeatherDisplay:10.37 W/m2 BKN
13:10 58.1 °F 33.2 °F 30.07 in West 3.5 mph 3.5 mph 39% 0.00 in WeatherDisplay:10.37 W/m2 BKN
13:15 58.4 °F 33.5 °F 30.06 in WSW 2.3 mph 2.3 mph 39% 0.00 in WeatherDisplay:10.37 W/m2 BKN
13:20 58.7 °F 33.8 °F 30.06 in WSW 2.3 mph   39% 0.00 in WeatherDisplay:10.37 W/m2 BKN
13:25 58.7 °F 33.1 °F 30.06 in West 1.2 mph 1.2 mph 38% 0.00 in WeatherDisplay:10.37 W/m2 BKN
13:30 58.4 °F 34.2 °F 30.06 in West 1.2 mph 1.2 mph 40% 0.00 in WeatherDisplay:10.37 W/m2 BKN
13:36 58.5 °F 33.0 °F 30.06 in West 1.2 mph 1.2 mph 38% 0.00 in WeatherDisplay:10.37 W/m2 BKN
13:41 58.5 °F 35.5 °F 30.06 in WSW 2.3 mph   42% 0.00 in WeatherDisplay:10.37 W/m2 BKN
13:51 58.4 °F 34.2 °F 30.06 in WNW 3.5 mph 3.5 mph 40% 0.00 in WeatherDisplay:10.37 W/m2 BKN
13:56 58.7 °F 35.0 °F 30.06 in West 2.3 mph   41% 0.00 in WeatherDisplay:10.37 W/m2 BKN
14:06 59.3 °F 36.2 °F 30.05 in SSW 2.3 mph 2.3 mph 42% 0.00 in WeatherDisplay:10.37 W/m2 BKN
14:11 59.1 °F 35.4 °F 30.05 in SSE 2.3 mph 2.3 mph 41% 0.00 in WeatherDisplay:10.37 W/m2 BKN
14:16 59.0 °F 36.5 °F 30.05 in ESE 2.3 mph   43% 0.00 in WeatherDisplay:10.37 W/m2 BKN
14:26 58.9 °F 36.4 °F 30.05 in NNE 1.2 mph 1.2 mph 43% 0.00 in WeatherDisplay:10.37 W/m2 BKN
14:31 58.7 °F 35.7 °F 30.05 in WNW 2.3 mph   42% 0.00 in WeatherDisplay:10.37 W/m2 BKN
14:36 58.9 °F 37.0 °F 30.05 in WNW 2.3 mph 2.3 mph 44% 0.00 in WeatherDisplay:10.37 W/m2 BKN
14:41 59.1 °F 36.6 °F 30.04 in NW 1.2 mph 1.2 mph 43% 0.00 in WeatherDisplay:10.37 W/m2 BKN
14:47 59.5 °F 37.0 °F 30.04 in NNW 1.2 mph   43% 0.00 in WeatherDisplay:10.37 W/m2 BKN
14:57 59.6 °F 37.1 °F 30.04 in NNW 2.3 mph 2.3 mph 43% 0.00 in WeatherDisplay:10.37 W/m2 BKN
15:02 59.6 °F 38.2 °F 30.04 in WNW 2.3 mph   45% 0.00 in WeatherDisplay:10.37 W/m2 CLR
15:12 59.7 °F 37.7 °F 30.03 in West 1.2 mph 1.2 mph 44% 0.00 in WeatherDisplay:10.37 W/m2 CLR
15:17 59.4 °F 36.9 °F 30.03 in West 1.2 mph   43% 0.00 in WeatherDisplay:10.37 W/m2 CLR
15:22 59.5 °F 36.4 °F 30.03 in WNW 1.2 mph   42% 0.00 in WeatherDisplay:10.37 W/m2 CLR
15:27 59.6 °F 36.5 °F 30.03 in WNW 2.3 mph 2.3 mph 42% 0.00 in WeatherDisplay:10.37 W/m2 CLR
15:32 59.4 °F 36.9 °F 30.03 in WNW 2.3 mph   43% 0.00 in WeatherDisplay:10.37 W/m2 CLR
15:37 59.2 °F 37.3 °F 30.03 in NNW 2.3 mph   44% 0.00 in WeatherDisplay:10.37 W/m2 CLR
15:42 59.1 °F 38.3 °F 30.03 in Calm     46% 0.00 in WeatherDisplay:10.37 W/m2 CLR
15:53 58.7 °F 37.4 °F 30.03 in West 2.3 mph   45% 0.00 in WeatherDisplay:10.37 W/m2 CLR
15:58 58.5 °F 37.8 °F 30.03 in West 1.2 mph   46% 0.00 in WeatherDisplay:10.37 W/m2 CLR
16:05 58.2 °F 38.6 °F 30.03 in West 1.2 mph   48% 0.00 in WeatherDisplay:10.37 W/m2 CLR
16:10 57.8 °F 38.8 °F 30.03 in West 1.2 mph   49% 0.00 in WeatherDisplay:10.37 W/m2 CLR
16:16 57.6 °F 39.1 °F 30.03 in Calm     50% 0.00 in WeatherDisplay:10.37 W/m2 CLR
16:21 57.3 °F 39.3 °F 30.03 in Calm     51% 0.00 in WeatherDisplay:10.37 W/m2 CLR
16:25 57.3 °F 38.8 °F 30.03 in Calm   1.0 mph 50% 0.00 in WeatherDisplay:10.37 W/m2 CLR
16:30 57.0 °F 39.0 °F 30.03 in West 1.2 mph   51% 0.00 in WeatherDisplay:10.37 W/m2 CLR
16:35 56.8 °F 38.9 °F 30.03 in West 1.2 mph   51% 0.00 in WeatherDisplay:10.37 W/m2 CLR
16:40 56.6 °F 39.7 °F 30.03 in Calm     53% 0.00 in WeatherDisplay:10.37 W/m2 CLR
17:00 55.6 °F 39.7 °F 30.03 in Calm     55% 0.00 in WeatherDisplay:10.37 W/m2 CLR
17:05 55.4 °F 39.5 °F 30.03 in Calm     55% 0.00 in WeatherDisplay:10.37 W/m2 CLR
17:10 55.1 °F 39.7 °F 30.03 in Calm     56% 0.00 in WeatherDisplay:10.37 W/m2 CLR
17:15 54.8 °F 39.8 °F 30.04 in Calm     57% 0.00 in WeatherDisplay:10.37 W/m2 CLR
17:20 54.5 °F 39.6 °F 30.03 in Calm     57% 0.00 in WeatherDisplay:10.37 W/m2 CLR
17:26 54.2 °F 39.7 °F 30.03 in Calm     58% 0.00 in WeatherDisplay:10.37 W/m2 CLR
17:36 53.4 °F 39.4 °F 30.03 in Calm     59% 0.00 in WeatherDisplay:10.37 W/m2 CLR
17:41 52.9 °F 39.4 °F 30.04 in Calm     60% 0.00 in WeatherDisplay:10.37 W/m2 CLR
17:46 52.5 °F 39.4 °F 30.04 in Calm     61% 0.00 in WeatherDisplay:10.37 W/m2 CLR
17:51 52.3 °F 39.2 °F 30.04 in Calm     61% 0.00 in WeatherDisplay:10.37 W/m2 CLR
18:06 51.4 °F 39.2 °F 30.05 in Calm     63% 0.00 in WeatherDisplay:10.37 W/m2 CLR
18:11 51.0 °F 39.6 °F 30.05 in Calm     65% 0.00 in WeatherDisplay:10.37 W/m2 CLR
18:16 50.6 °F 39.7 °F 30.05 in Calm     66% 0.00 in WeatherDisplay:10.37 W/m2 CLR
18:21 50.1 °F 39.9 °F 30.05 in Calm     68% 0.00 in WeatherDisplay:10.37 W/m2 CLR
18:26 49.7 °F 39.9 °F 30.05 in Calm     69% 0.00 in WeatherDisplay:10.37 W/m2 CLR
18:37 49.0 °F 39.6 °F 30.05 in Calm     70% 0.00 in WeatherDisplay:10.37 W/m2 CLR
18:42 48.7 °F 39.7 °F 30.05 in Calm     71% 0.00 in WeatherDisplay:10.37 W/m2 CLR
18:47 48.4 °F 39.8 °F 30.05 in Calm     72% 0.00 in WeatherDisplay:10.37 W/m2 CLR
18:57 47.8 °F 39.2 °F 30.05 in Calm     72% 0.00 in WeatherDisplay:10.37 W/m2 CLR
19:02 47.5 °F 39.6 °F 30.06 in Calm     74% 0.00 in WeatherDisplay:10.37 W/m2 CLR
19:07 47.2 °F 39.7 °F 30.06 in Calm     75% 0.00 in WeatherDisplay:10.37 W/m2 CLR
19:12 47.0 °F 39.5 °F 30.05 in Calm     75% 0.00 in WeatherDisplay:10.37 W/m2 CLR
19:17 46.7 °F 39.2 °F 30.05 in Calm     75% 0.00 in WeatherDisplay:10.37 W/m2 CLR
19:22 46.6 °F 39.8 °F 30.05 in Calm     77% 0.00 in WeatherDisplay:10.37 W/m2 CLR
19:32 46.1 °F 39.3 °F 30.06 in Calm     77% 0.00 in WeatherDisplay:10.37 W/m2 CLR
19:37 46.0 °F 39.5 °F 30.06 in Calm     78% 0.00 in WeatherDisplay:10.37 W/m2 CLR
19:43 45.9 °F 39.8 °F 30.06 in Calm     79% 0.00 in WeatherDisplay:10.37 W/m2 CLR
19:48 45.7 °F 39.6 °F 30.06 in Calm     79% 0.00 in WeatherDisplay:10.37 W/m2 CLR
19:58 45.3 °F 39.5 °F 30.06 in Calm     80% 0.00 in WeatherDisplay:10.37 W/m2 CLR
20:13 44.9 °F 39.4 °F 30.06 in Calm     81% 0.00 in WeatherDisplay:10.37 W/m2 CLR
20:18 44.8 °F 39.3 °F 30.06 in Calm     81% 0.00 in WeatherDisplay:10.37 W/m2 CLR
20:23 44.7 °F 39.2 °F 30.06 in Calm     81% 0.00 in WeatherDisplay:10.37 W/m2 CLR
20:28 44.7 °F 39.2 °F 30.06 in Calm     81% 0.00 in WeatherDisplay:10.37 W/m2 CLR
20:33 44.6 °F 39.1 °F 30.06 in Calm     81% 0.00 in WeatherDisplay:10.37 W/m2 CLR
20:38 44.5 °F 39.0 °F 30.06 in Calm     81% 0.00 in WeatherDisplay:10.37 W/m2 CLR
20:43 44.3 °F 38.8 °F 30.07 in Calm     81% 0.00 in WeatherDisplay:10.37 W/m2 CLR
20:48 44.9 °F 39.4 °F 30.07 in Calm     81% 0.00 in WeatherDisplay:10.37 W/m2 CLR
20:59 45.1 °F 39.3 °F 30.07 in Calm     80% 0.00 in WeatherDisplay:10.37 W/m2 CLR
21:09 44.3 °F 38.8 °F 30.07 in Calm     81% 0.00 in WeatherDisplay:10.37 W/m2 CLR
21:14 44.1 °F 39.0 °F 30.07 in Calm     82% 0.00 in WeatherDisplay:10.37 W/m2 CLR
21:19 44.0 °F 39.2 °F 30.07 in Calm     83% 0.00 in WeatherDisplay:10.37 W/m2 CLR
21:24 43.8 °F 39.0 °F 30.07 in Calm     83% 0.00 in WeatherDisplay:10.37 W/m2 CLR
21:29 43.5 °F 38.4 °F 30.07 in Calm     82% 0.00 in WeatherDisplay:10.37 W/m2 CLR
21:34 43.2 °F 38.4 °F 30.07 in Calm     83% 0.00 in WeatherDisplay:10.37 W/m2 CLR
21:39 43.0 °F 38.2 °F 30.07 in Calm     83% 0.00 in WeatherDisplay:10.37 W/m2 CLR
21:44 42.9 °F 38.4 °F 30.07 in Calm     84% 0.00 in WeatherDisplay:10.37 W/m2 CLR
21:52 42.8 °F 38.3 °F 30.07 in Calm     84% 0.00 in WeatherDisplay:10.37 W/m2 CLR
21:57 42.7 °F 38.5 °F 30.07 in Calm     85% 0.00 in WeatherDisplay:10.37 W/m2 CLR
22:02 42.5 °F 38.0 °F 30.07 in Calm     84% 0.00 in WeatherDisplay:10.37 W/m2 CLR
22:07 42.4 °F 38.2 °F 30.07 in Calm     85% 0.00 in WeatherDisplay:10.37 W/m2 CLR
22:14 42.2 °F 38.0 °F 30.07 in Calm     85% 0.00 in WeatherDisplay:10.37 W/m2 CLR
22:24 41.9 °F 38.0 °F 30.07 in Calm     86% 0.00 in WeatherDisplay:10.37 W/m2 CLR
22:34 41.7 °F 38.1 °F 30.07 in Calm     87% 0.00 in WeatherDisplay:10.37 W/m2 CLR
22:36 41.7 °F 38.1 °F 30.07 in Calm     87% 0.00 in WeatherDisplay:10.37 W/m2 CLR
22:41 41.6 °F 37.7 °F 30.07 in Calm     86% 0.00 in WeatherDisplay:10.37 W/m2 CLR
22:56 41.3 °F 37.7 °F 30.08 in Calm     87% 0.00 in WeatherDisplay:10.37 W/m2 CLR
23:01 41.2 °F 37.6 °F 30.08 in Calm     87% 0.00 in WeatherDisplay:10.37 W/m2 CLR
23:07 41.2 °F 37.6 °F 30.08 in Calm     87% 0.00 in WeatherDisplay:10.37 W/m2 CLR
23:12 41.0 °F 37.4 °F 30.07 in Calm     87% 0.00 in WeatherDisplay:10.37 W/m2 CLR
23:17 40.9 °F 37.3 °F 30.08 in Calm     87% 0.00 in WeatherDisplay:10.37 W/m2 CLR
23:22 41.1 °F 37.8 °F 30.08 in Calm     88% 0.00 in WeatherDisplay:10.37 W/m2 CLR
23:27 41.1 °F 37.5 °F 30.08 in Calm     87% 0.00 in WeatherDisplay:10.37 W/m2 CLR
23:32 40.9 °F 37.3 °F 30.08 in Calm     87% 0.00 in WeatherDisplay:10.37 W/m2 CLR
23:37 40.7 °F 37.1 °F 30.08 in Calm     87% 0.00 in WeatherDisplay:10.37 W/m2 CLR
23:47 40.4 °F 37.1 °F 30.08 in Calm     88% 0.00 in WeatherDisplay:10.37 W/m2 CLR
Piedmont Bend
Compliments of Weather Underground - 4 mb